Terminal Aerodrome Forecast
Issued by NWS

Home | Current Version | Previous Version | Text Only | Print | Product List | Glossary On
Versions: 1 2 3 4 5 6 7 8 9 10 11 12 13 14 15
000
FTUS46 KPDT 291904 AAA
TAFALW
TAF AMD
KALW 291904Z 2919/3018 20012KT P6SM -SHRA SCT035 BKN050 OVC070
      TEMPO 2919/2921 3SM SHRA BKN035 OVC050
     FM300300 18010KT P6SM VCSH SCT050 BKN070
     FM301000 21012KT P6SM SCT050 BKN070=

USA.gov is the U.S. government's official web portal to all federal, state and local government web resources and services.